createdAt,value
2022-09-22T00:01:03.364Z,3.45
2022-09-22T00:03:08.612Z,6.15
2022-09-22T00:05:15.118Z,4.57
2022-09-22T00:07:23.552Z,4.07
2022-09-22T00:09:28.519Z,3.72
2022-09-22T00:11:37.577Z,3.72
2022-09-22T00:13:44.544Z,2.78
2022-09-22T00:15:49.994Z,11.20
2022-09-22T00:17:54.896Z,4.13
2022-09-22T00:19:59.866Z,4.93
2022-09-22T00:22:05.715Z,6.70
2022-09-22T00:24:13.508Z,4.93
2022-09-22T00:26:22.874Z,6.15
2022-09-22T00:28:27.960Z,6.93
2022-09-22T00:30:33.485Z,6.13
2022-09-22T00:32:41.993Z,7.35
2022-09-22T00:34:47.489Z,3.45
2022-09-22T00:36:53.287Z,4.13
2022-09-22T00:39:01.391Z,4.43
2022-09-22T00:41:11.180Z,8.25
2022-09-22T00:43:22.004Z,6.40
2022-09-22T00:45:27.505Z,3.55
2022-09-22T00:47:39.176Z,6.32
2022-09-22T00:49:52.704Z,6.30
2022-09-22T00:51:57.658Z,8.95
2022-09-22T00:54:07.306Z,4.97
2022-09-22T00:56:21.326Z,6.45
2022-09-22T00:58:33.618Z,6.15
2022-09-22T01:00:39.513Z,5.80
2022-09-22T01:02:44.964Z,6.07
2022-09-22T01:04:52.154Z,2.88
2022-09-22T01:06:59.848Z,4.28
2022-09-22T01:09:05.532Z,9.65
2022-09-22T01:11:11.640Z,4.22
2022-09-22T01:13:28.850Z,5.95
2022-09-22T01:18:00.667Z,11.50
2022-09-22T01:20:41.862Z,5.15
2022-09-22T01:23:31.000Z,17.15
2022-09-22T01:26:05.608Z,7.32
2022-09-22T01:28:51.786Z,4.47
2022-09-22T01:31:03.668Z,7.35
2022-09-22T01:33:39.933Z,6.75
2022-09-22T01:36:00.510Z,4.85
2022-09-22T01:38:13.093Z,4.55
2022-09-22T01:40:27.831Z,4.25
2022-09-22T01:42:39.982Z,4.78
2022-09-22T01:44:52.658Z,4.90
2022-09-22T01:47:08.622Z,7.85
2022-09-22T01:49:16.790Z,5.82
2022-09-22T01:51:28.317Z,4.05
2022-09-22T01:53:42.235Z,35.67
2022-09-22T01:55:54.628Z,64.70
2022-09-22T01:58:03.669Z,69.03
2022-09-22T02:00:13.685Z,8.02
2022-09-22T02:02:28.146Z,5.68
2022-09-22T02:04:38.615Z,4.03
2022-09-22T02:06:50.960Z,3.53
2022-09-22T02:09:02.311Z,4.25
2022-09-22T02:11:14.047Z,3.83
2022-09-22T02:13:19.241Z,7.97
2022-09-22T02:15:38.195Z,3.63
2022-09-22T02:17:45.845Z,8.00
2022-09-22T02:19:51.262Z,8.48
2022-09-22T02:21:57.832Z,16.70
2022-09-22T02:24:02.782Z,12.85
2022-09-22T02:26:09.500Z,36.05
2022-09-22T02:28:18.670Z,47.50
2022-09-22T02:30:24.979Z,20.42
2022-09-22T02:32:32.462Z,34.92
2022-09-22T02:34:40.572Z,39.65
2022-09-22T02:36:58.371Z,31.77
2022-09-22T02:41:22.600Z,39.47
2022-09-22T02:43:36.825Z,53.28
2022-09-22T02:45:52.199Z,54.08
2022-09-22T02:48:02.361Z,99.18
2022-09-22T02:50:14.970Z,111.45
2022-09-22T02:52:25.161Z,47.50
2022-09-22T02:54:30.104Z,44.05
2022-09-22T02:56:35.794Z,42.47
2022-09-22T02:58:40.715Z,58.35
2022-09-22T03:00:46.838Z,109.97
2022-09-22T03:02:52.117Z,44.78
2022-09-22T03:04:57.811Z,44.08
2022-09-22T03:07:06.946Z,23.95
2022-09-22T03:09:12.197Z,25.83
2022-09-22T03:11:17.152Z,19.27
2022-09-22T03:13:22.456Z,26.88
2022-09-22T03:15:27.846Z,32.38
2022-09-22T03:17:34.267Z,28.55
2022-09-22T03:19:39.658Z,24.85
2022-09-22T03:21:44.579Z,33.45
2022-09-22T03:23:52.728Z,40.97
2022-09-22T03:25:58.212Z,26.02
2022-09-22T03:28:03.194Z,49.28
2022-09-22T03:30:11.406Z,40.90
2022-09-22T03:32:16.503Z,31.95
2022-09-22T03:34:21.394Z,28.88
2022-09-22T03:36:26.628Z,21.70
2022-09-22T03:38:31.560Z,30.17
2022-09-22T03:40:39.178Z,28.67
2022-09-22T03:42:44.612Z,22.50
2022-09-22T03:44:49.846Z,28.20
2022-09-22T03:46:54.862Z,37.03
2022-09-22T03:49:00.594Z,68.10
2022-09-22T03:51:05.829Z,28.30
2022-09-22T03:53:10.742Z,96.20
2022-09-22T03:55:16.291Z,76.22
2022-09-22T03:57:24.172Z,56.83
2022-09-22T03:59:29.075Z,78.35
2022-09-22T04:01:34.934Z,40.20
2022-09-22T04:03:41.021Z,42.78
2022-09-22T04:05:53.023Z,68.35
2022-09-22T04:07:58.149Z,43.95
2022-09-22T04:10:03.391Z,63.10
2022-09-22T04:12:10.012Z,69.43
2022-09-22T04:14:17.748Z,122.10
2022-09-22T04:16:23.191Z,115.45
2022-09-22T04:18:28.558Z,68.97
2022-09-22T04:20:33.504Z,125.70
2022-09-22T04:22:38.735Z,63.63
2022-09-22T04:24:44.011Z,70.20
2022-09-22T04:27:08.636Z,96.13
2022-09-22T04:29:16.857Z,69.43
2022-09-22T04:31:23.101Z,117.13
2022-09-22T04:33:28.586Z,90.80
2022-09-22T04:35:33.517Z,70.80
2022-09-22T04:37:38.752Z,74.60
2022-09-22T04:39:43.966Z,61.35
2022-09-22T04:41:48.837Z,73.80
2022-09-22T04:43:54.091Z,67.50
2022-09-22T04:46:02.271Z,74.75
2022-09-22T04:48:08.128Z,66.93
2022-09-22T04:50:13.632Z,93.85
2022-09-22T04:52:18.606Z,80.85
2022-09-22T04:54:23.548Z,163.30
2022-09-22T04:56:28.681Z,75.68
2022-09-22T04:58:33.649Z,90.18
2022-09-22T05:00:40.052Z,60.10
2022-09-22T05:02:47.894Z,90.63
2022-09-22T05:04:53.391Z,73.88
2022-09-22T05:06:58.604Z,65.53
2022-09-22T05:09:03.537Z,82.70
2022-09-22T05:11:09.749Z,90.20
2022-09-22T05:13:16.782Z,135.63
2022-09-22T05:15:22.890Z,140.40
2022-09-22T05:17:29.911Z,82.75
2022-09-22T05:19:37.442Z,71.32
2022-09-22T05:21:42.857Z,243.05
2022-09-22T05:23:48.469Z,73.43
2022-09-22T05:25:53.406Z,103.80
2022-09-22T05:28:00.328Z,114.35
2022-09-22T05:30:05.690Z,211.70
2022-09-22T05:32:10.961Z,113.80
2022-09-22T05:34:16.222Z,163.60
2022-09-22T05:36:23.791Z,145.90
2022-09-22T05:38:29.040Z,140.90
2022-09-22T05:40:34.514Z,155.00
2022-09-22T05:42:43.494Z,208.35
2022-09-22T05:44:48.601Z,116.38
2022-09-22T05:46:53.870Z,104.80
2022-09-22T05:48:58.818Z,107.70
2022-09-22T05:51:03.716Z,54.00
2022-09-22T05:53:13.631Z,88.85
2022-09-22T05:55:18.794Z,50.22
2022-09-22T05:57:25.559Z,51.67
2022-09-22T05:59:30.468Z,67.88
2022-09-22T06:01:35.407Z,24.13
2022-09-22T06:03:40.778Z,70.05
2022-09-22T06:05:47.707Z,31.50
2022-09-22T06:08:01.808Z,33.50
2022-09-22T06:10:12.761Z,21.92
2022-09-22T06:12:18.123Z,42.92
2022-09-22T06:14:23.109Z,89.80
2022-09-22T06:16:29.083Z,22.10
2022-09-22T06:18:34.143Z,55.08
2022-09-22T06:20:40.965Z,75.75
2022-09-22T06:22:45.886Z,59.45
2022-09-22T06:24:50.857Z,46.75
2022-09-22T06:26:58.405Z,42.45
2022-09-22T06:31:09.491Z,52.03
2022-09-22T06:33:14.887Z,53.35
2022-09-22T06:35:20.371Z,64.30
2022-09-22T06:37:25.508Z,86.05
2022-09-22T06:39:30.965Z,85.30
2022-09-22T06:41:36.750Z,58.45
2022-09-22T06:43:47.974Z,85.35
2022-09-22T06:45:55.794Z,148.90
2022-09-22T06:48:05.200Z,80.10
2022-09-22T06:50:13.008Z,69.70
2022-09-22T06:52:21.528Z,58.33
2022-09-22T06:54:26.479Z,112.95
2022-09-22T06:56:35.906Z,38.67
2022-09-22T06:59:08.235Z,96.28
2022-09-22T07:01:11.469Z,50.25
2022-09-22T07:03:20.944Z,38.53
2022-09-22T07:05:26.308Z,144.57
2022-09-22T07:07:32.211Z,91.00
2022-09-22T07:09:37.147Z,47.70
2022-09-22T07:11:42.134Z,94.70
2022-09-22T07:13:49.997Z,44.33
2022-09-22T07:15:55.440Z,38.47
2022-09-22T07:18:00.461Z,93.22
2022-09-22T07:20:08.462Z,20.60
2022-09-22T07:22:14.376Z,60.80
2022-09-22T07:24:19.722Z,31.27
2022-09-22T07:26:28.799Z,58.58
2022-09-22T07:28:35.911Z,80.15
2022-09-22T07:30:43.672Z,66.25
2022-09-22T07:32:48.561Z,77.78
2022-09-22T07:34:53.676Z,68.25
2022-09-22T07:36:59.869Z,62.13
2022-09-22T07:39:11.508Z,11.93
2022-09-22T07:41:19.256Z,54.88
2022-09-22T07:43:24.369Z,229.93
2022-09-22T07:45:26.676Z,49.60
2022-09-22T07:47:47.225Z,70.25
2022-09-22T07:49:52.147Z,57.80
2022-09-22T07:51:57.665Z,33.17
2022-09-22T07:54:07.844Z,73.75
2022-09-22T07:56:15.105Z,83.60
2022-09-22T07:58:21.192Z,64.40
2022-09-22T08:00:27.170Z,55.00
2022-09-22T08:02:35.065Z,85.40
2022-09-22T08:04:41.124Z,75.80
2022-09-22T08:06:47.492Z,66.72
2022-09-22T08:08:55.460Z,58.10
2022-09-22T08:13:12.122Z,54.88
2022-09-22T08:15:21.401Z,104.80
2022-09-22T08:17:29.629Z,32.13
2022-09-22T08:19:37.901Z,50.67
2022-09-22T08:21:49.711Z,10.23
2022-09-22T08:23:55.680Z,21.65
2022-09-22T08:26:06.200Z,36.45
2022-09-22T08:28:12.522Z,37.40
2022-09-22T08:30:18.917Z,23.02
2022-09-22T08:32:26.828Z,21.48
2022-09-22T08:34:31.786Z,8.88
2022-09-22T08:36:43.061Z,14.35
2022-09-22T08:38:49.771Z,15.77
2022-09-22T08:41:17.082Z,7.43
2022-09-22T08:43:22.043Z,25.98
2022-09-22T08:45:36.021Z,11.07
2022-09-22T08:48:00.950Z,10.27
2022-09-22T08:50:29.199Z,21.27
2022-09-22T08:52:47.215Z,10.02
2022-09-22T08:54:55.985Z,9.52
2022-09-22T08:57:35.405Z,10.15
2022-09-22T08:59:49.005Z,10.10
2022-09-22T09:02:36.012Z,14.75
2022-09-22T09:05:08.569Z,13.75
2022-09-22T09:07:26.801Z,9.32
2022-09-22T09:09:54.415Z,8.57
2022-09-22T09:14:39.513Z,8.90
2022-09-22T09:16:52.284Z,9.07
2022-09-22T09:19:05.131Z,8.40
2022-09-22T09:21:16.884Z,7.65
2022-09-22T09:25:22.104Z,6.63
2022-09-22T09:25:57.910Z,8.73
2022-09-22T09:28:07.718Z,7.47
2022-09-22T09:30:18.090Z,7.78
2022-09-22T09:32:34.523Z,9.85
2022-09-22T09:34:40.322Z,7.72
2022-09-22T09:36:48.876Z,6.55
2022-09-22T09:38:57.678Z,6.88
2022-09-22T09:41:17.275Z,7.05
2022-09-22T09:43:24.230Z,6.38
2022-09-22T09:45:37.496Z,6.40
2022-09-22T09:48:08.352Z,7.03
2022-09-22T09:50:14.010Z,6.28
2022-09-22T09:52:20.240Z,6.00
2022-09-22T09:54:27.894Z,4.93
2022-09-22T09:56:37.619Z,10.10
2022-09-22T09:59:11.686Z,5.60
2022-09-22T10:01:17.593Z,5.68
2022-09-22T10:03:31.692Z,5.60
2022-09-22T10:05:39.682Z,7.78
2022-09-22T10:09:53.227Z,5.22
2022-09-22T10:12:05.967Z,6.60
2022-09-22T10:14:22.022Z,6.45
2022-09-22T10:16:28.844Z,5.03
2022-09-22T10:18:40.597Z,5.57
2022-09-22T10:20:46.117Z,3.40
2022-09-22T10:22:51.542Z,5.13
2022-09-22T10:25:02.714Z,4.47
2022-09-22T10:27:24.081Z,3.72
2022-09-22T10:29:29.511Z,4.97
2022-09-22T10:31:35.841Z,6.10
2022-09-22T10:33:58.425Z,6.60
2022-09-22T10:36:11.990Z,6.47
2022-09-22T10:38:23.196Z,6.75
2022-09-22T10:40:30.058Z,2.90
2022-09-22T10:42:44.046Z,3.83
2022-09-22T10:44:49.868Z,2.58
2022-09-22T10:47:26.801Z,2.30
2022-09-22T10:49:51.529Z,2.60
2022-09-22T10:52:10.984Z,4.20
2022-09-22T10:54:52.796Z,3.88
2022-09-22T10:57:09.201Z,3.17
2022-09-22T10:59:39.413Z,3.33
2022-09-22T11:02:02.305Z,5.22
2022-09-22T11:04:42.233Z,2.17
2022-09-22T11:07:20.239Z,2.25
2022-09-22T11:09:48.160Z,2.42
2022-09-22T11:12:21.094Z,2.33
2022-09-22T11:14:46.404Z,3.53
2022-09-22T11:17:08.894Z,2.97
2022-09-22T11:19:43.612Z,2.00
2022-09-22T11:22:07.386Z,2.97
2022-09-22T11:24:39.280Z,3.10
2022-09-22T11:26:51.632Z,3.00
2022-09-22T11:29:20.494Z,3.90
2022-09-22T11:31:43.616Z,2.38
2022-09-22T11:34:10.681Z,2.10
2022-09-22T11:36:31.033Z,2.08
2022-09-22T11:39:16.851Z,2.70
2022-09-22T11:41:34.783Z,3.63
2022-09-22T11:44:08.336Z,2.70
2022-09-22T11:46:24.077Z,2.20
2022-09-22T11:48:53.744Z,4.15
2022-09-22T11:51:15.048Z,3.50
2022-09-22T11:53:39.270Z,2.10
2022-09-22T11:55:55.903Z,3.83
2022-09-22T11:58:06.114Z,2.17
2022-09-22T12:00:18.992Z,1.83
2022-09-22T12:02:31.908Z,3.88
2022-09-22T12:04:47.144Z,2.85
2022-09-22T12:06:56.879Z,2.63
2022-09-22T12:09:07.416Z,2.95
2022-09-22T12:11:17.823Z,2.15
2022-09-22T12:13:26.753Z,2.33
2022-09-22T12:15:41.082Z,1.70
2022-09-22T12:17:55.500Z,1.60
2022-09-22T12:20:20.124Z,2.10
2022-09-22T12:22:32.142Z,1.73
2022-09-22T12:24:37.882Z,2.13
2022-09-22T12:26:46.295Z,4.10
2022-09-22T12:28:52.255Z,3.47
2022-09-22T12:31:07.588Z,4.10
2022-09-22T12:33:18.574Z,3.47
2022-09-22T12:35:32.697Z,2.33
2022-09-22T12:37:41.438Z,1.13
2022-09-22T12:39:50.793Z,3.30
2022-09-22T12:42:02.557Z,1.02
2022-09-22T12:44:16.313Z,2.53
2022-09-22T12:46:32.145Z,3.42
2022-09-22T12:48:40.205Z,1.20
2022-09-22T12:53:26.511Z,2.53
2022-09-22T12:55:40.913Z,3.47
2022-09-22T12:57:50.784Z,3.88
2022-09-22T13:00:32.294Z,3.10
2022-09-22T13:02:47.276Z,1.25
2022-09-22T13:05:35.419Z,2.70
2022-09-22T13:07:46.736Z,2.45
2022-09-22T13:09:51.724Z,1.35
2022-09-22T13:12:30.985Z,1.23
2022-09-22T13:15:13.954Z,1.75
2022-09-22T13:17:43.085Z,1.35
2022-09-22T13:19:57.296Z,1.65
2022-09-22T13:22:19.212Z,1.63
2022-09-22T13:24:28.553Z,3.65
2022-09-22T13:26:36.621Z,2.30
2022-09-22T13:28:41.614Z,1.45
2022-09-22T13:30:49.003Z,3.13
2022-09-22T13:32:54.678Z,1.60
2022-09-22T13:34:59.703Z,3.05
2022-09-22T13:37:10.034Z,1.92
2022-09-22T13:39:20.927Z,1.83
2022-09-22T13:41:38.029Z,3.60
2022-09-22T13:43:47.170Z,1.33
2022-09-22T13:45:52.277Z,2.15
2022-09-22T13:48:08.067Z,1.58
2022-09-22T13:50:22.086Z,1.60
2022-09-22T13:52:32.492Z,2.55
2022-09-22T13:54:40.529Z,1.55
2022-09-22T13:56:49.257Z,1.85
2022-09-22T13:58:59.452Z,2.72
2022-09-22T14:01:14.361Z,1.40
2022-09-22T14:03:24.089Z,1.95
2022-09-22T14:05:32.778Z,1.20
2022-09-22T14:07:55.136Z,2.05
2022-09-22T14:10:09.243Z,0.98
2022-09-22T14:12:17.425Z,1.15
2022-09-22T14:14:28.810Z,1.13
2022-09-22T14:16:40.127Z,2.97
2022-09-22T14:18:50.384Z,2.38
2022-09-22T14:20:56.581Z,0.88
2022-09-22T14:23:01.580Z,2.75
2022-09-22T14:25:08.158Z,1.33
2022-09-22T14:29:32.898Z,1.83
2022-09-22T14:31:38.001Z,1.75
2022-09-22T14:33:45.582Z,1.98
2022-09-22T14:35:52.943Z,1.70
2022-09-22T14:38:04.526Z,0.95
2022-09-22T14:40:20.086Z,2.78
2022-09-22T14:42:32.031Z,1.38
2022-09-22T14:44:45.698Z,0.80
2022-09-22T14:46:50.876Z,1.27
2022-09-22T14:48:55.980Z,1.30
2022-09-22T14:51:06.190Z,1.23
2022-09-22T14:53:22.091Z,2.13
2022-09-22T14:55:35.868Z,1.98
2022-09-22T14:57:49.350Z,1.40
2022-09-22T15:00:12.163Z,1.75
2022-09-22T15:02:31.156Z,1.27
2022-09-22T15:04:36.161Z,1.10
2022-09-22T15:06:41.732Z,1.42
2022-09-22T15:08:54.894Z,1.08
2022-09-22T15:11:03.288Z,0.60
2022-09-22T15:13:41.820Z,1.58
2022-09-22T15:15:50.188Z,1.40
2022-09-22T15:18:11.780Z,1.27
2022-09-22T15:20:18.494Z,0.98
2022-09-22T15:22:24.168Z,1.77
2022-09-22T15:24:29.140Z,3.08
2022-09-22T15:26:35.600Z,1.77
2022-09-22T15:28:43.643Z,1.08
2022-09-22T15:30:50.502Z,2.15
2022-09-22T15:32:55.960Z,0.90
2022-09-22T15:35:00.908Z,1.63
2022-09-22T15:37:06.917Z,3.15
2022-09-22T15:39:22.747Z,1.75
2022-09-22T15:41:28.043Z,0.73
2022-09-22T15:43:33.576Z,2.47
2022-09-22T15:45:48.810Z,0.85
2022-09-22T15:47:58.072Z,2.15
2022-09-22T15:50:02.982Z,1.48
2022-09-22T15:52:07.963Z,1.15
2022-09-22T15:54:20.530Z,2.08
2022-09-22T15:56:28.796Z,0.82
2022-09-22T15:58:39.164Z,1.52
2022-09-22T16:00:47.293Z,2.15
2022-09-22T16:02:53.270Z,1.10
2022-09-22T16:05:00.055Z,2.33
2022-09-22T16:07:10.561Z,1.20
2022-09-22T16:09:20.550Z,1.08
2022-09-22T16:11:29.959Z,1.35
2022-09-22T16:13:35.104Z,1.15
2022-09-22T16:15:40.166Z,1.52
2022-09-22T16:17:48.604Z,1.45
2022-09-22T16:19:53.685Z,3.97
2022-09-22T16:21:58.684Z,4.70
2022-09-22T16:24:08.608Z,2.80
2022-09-22T16:26:13.625Z,3.13
2022-09-22T16:28:18.790Z,4.55
2022-09-22T16:30:25.942Z,7.53
2022-09-22T16:32:32.495Z,4.90
2022-09-22T16:34:40.057Z,2.70
2022-09-22T16:36:45.171Z,6.32
2022-09-22T16:38:50.246Z,4.97
2022-09-22T16:41:04.526Z,2.95
2022-09-22T16:43:10.920Z,3.38
2022-09-22T16:45:15.900Z,2.38
2022-09-22T16:47:22.810Z,2.30
2022-09-22T16:49:28.228Z,1.55
2022-09-22T16:51:37.895Z,3.10
2022-09-22T16:53:42.800Z,4.47
2022-09-22T16:55:51.239Z,1.92
2022-09-22T16:57:56.614Z,6.78
2022-09-22T17:00:01.630Z,5.50
2022-09-22T17:02:07.270Z,5.32
2022-09-22T17:04:13.954Z,4.15
2022-09-22T17:06:23.113Z,4.53
2022-09-22T17:08:30.613Z,6.25
2022-09-22T17:10:35.994Z,3.80
2022-09-22T17:12:42.949Z,4.18
2022-09-22T17:14:49.935Z,5.13
2022-09-22T17:16:57.419Z,10.98
2022-09-22T17:19:05.398Z,6.50
2022-09-22T17:21:11.605Z,5.22
2022-09-22T17:23:17.043Z,8.43
2022-09-22T17:25:29.180Z,5.20
2022-09-22T17:27:34.301Z,3.30
2022-09-22T17:29:39.216Z,5.18
2022-09-22T17:31:46.129Z,5.85
2022-09-22T17:33:52.440Z,6.32
2022-09-22T17:36:01.349Z,3.20
2022-09-22T17:38:06.338Z,5.45
2022-09-22T17:40:13.354Z,4.60
2022-09-22T17:42:21.516Z,4.10
2022-09-22T17:44:28.755Z,3.60
2022-09-22T17:46:57.297Z,2.95
2022-09-22T17:49:15.390Z,4.25
2022-09-22T17:51:44.486Z,6.20
2022-09-22T17:54:01.921Z,10.02
2022-09-22T17:56:09.527Z,4.20
2022-09-22T17:58:19.286Z,10.30
2022-09-22T18:00:26.569Z,7.90
2022-09-22T18:02:36.636Z,6.43
2022-09-22T18:04:42.542Z,5.50
2022-09-22T18:06:48.677Z,6.85
2022-09-22T18:08:54.954Z,1.90
2022-09-22T18:11:01.629Z,4.22
2022-09-22T18:13:07.890Z,7.15
2022-09-22T18:15:17.823Z,4.13
2022-09-22T18:17:26.030Z,4.18
2022-09-22T18:19:36.559Z,8.07
2022-09-22T18:21:45.164Z,9.88
2022-09-22T18:23:50.154Z,8.05
2022-09-22T18:25:55.618Z,4.35
2022-09-22T18:28:00.904Z,4.40
2022-09-22T18:30:06.271Z,5.43
2022-09-22T18:32:14.101Z,7.05
2022-09-22T18:34:20.523Z,9.85
2022-09-22T18:36:25.948Z,5.53
2022-09-22T18:38:32.596Z,5.78
2022-09-22T18:40:37.605Z,3.65
2022-09-22T18:42:45.005Z,3.95
2022-09-22T18:44:49.967Z,8.15
2022-09-22T18:46:55.238Z,8.15
2022-09-22T18:49:08.244Z,3.13
2022-09-22T18:51:13.289Z,4.70
2022-09-22T18:53:19.662Z,8.30
2022-09-22T18:55:24.615Z,5.10
2022-09-22T18:57:30.118Z,6.70
2022-09-22T18:59:35.441Z,9.25
2022-09-22T19:01:40.975Z,3.53
2022-09-22T19:03:46.030Z,4.70
2022-09-22T19:05:53.555Z,5.45
2022-09-22T19:07:59.660Z,5.93
2022-09-22T19:10:04.605Z,7.72
2022-09-22T19:12:12.189Z,6.35
2022-09-22T19:14:17.673Z,6.65
2022-09-22T19:16:25.727Z,6.65
2022-09-22T19:18:32.065Z,5.78
2022-09-22T19:20:38.366Z,4.82
2022-09-22T19:22:46.975Z,6.18
2022-09-22T19:24:53.573Z,6.68
2022-09-22T19:26:58.715Z,6.32
2022-09-22T19:29:05.266Z,6.72
2022-09-22T19:31:10.737Z,6.53
2022-09-22T19:33:15.700Z,10.88
2022-09-22T19:35:21.063Z,8.57
2022-09-22T19:38:17.129Z,8.98
2022-09-22T19:40:26.004Z,7.35
2022-09-22T19:42:31.152Z,4.07
2022-09-22T19:44:36.129Z,5.90
2022-09-22T19:46:42.261Z,8.27
2022-09-22T19:48:48.434Z,7.63
2022-09-22T19:50:53.899Z,7.65
2022-09-22T19:52:59.155Z,7.63
2022-09-22T19:55:04.433Z,5.45
2022-09-22T19:57:13.305Z,5.18
2022-09-22T19:59:19.672Z,5.30
2022-09-22T20:01:37.573Z,4.40
2022-09-22T20:03:42.570Z,8.32
2022-09-22T20:05:47.979Z,8.73
2022-09-22T20:07:53.839Z,6.53
2022-09-22T20:09:58.980Z,5.38
2022-09-22T20:12:04.590Z,6.53
2022-09-22T20:14:27.241Z,6.55
2022-09-22T20:16:32.770Z,3.67
2022-09-22T20:18:41.371Z,6.35
2022-09-22T20:20:46.902Z,4.47
2022-09-22T20:23:00.581Z,4.75
2022-09-22T20:25:05.585Z,6.18
2022-09-22T20:27:11.380Z,5.63
2022-09-22T20:29:20.633Z,6.07
2022-09-22T20:31:25.980Z,4.47
2022-09-22T20:33:31.337Z,10.43
2022-09-22T20:35:36.590Z,7.63
2022-09-22T20:37:42.363Z,7.38
2022-09-22T20:39:47.638Z,5.65
2022-09-22T20:41:53.441Z,8.25
2022-09-22T20:43:58.509Z,8.57
2022-09-22T20:46:06.302Z,5.30
2022-09-22T20:48:18.608Z,5.32
2022-09-22T20:50:24.263Z,9.05
2022-09-22T20:52:31.292Z,7.97
2022-09-22T20:54:36.945Z,10.82
2022-09-22T20:56:43.119Z,5.55
2022-09-22T20:58:49.118Z,5.25
2022-09-22T21:00:56.039Z,6.05
2022-09-22T21:03:04.243Z,8.40
2022-09-22T21:05:10.417Z,8.98
2022-09-22T21:07:15.637Z,8.95
2022-09-22T21:09:33.099Z,8.63
2022-09-22T21:11:40.514Z,7.47
2022-09-22T21:13:46.007Z,8.23
2022-09-22T21:15:51.234Z,7.05
2022-09-22T21:17:57.239Z,7.35
2022-09-22T21:20:06.983Z,6.13
2022-09-22T21:22:12.087Z,6.60
2022-09-22T21:24:17.165Z,10.13
2022-09-22T21:26:23.805Z,6.32
2022-09-22T21:28:29.890Z,5.13
2022-09-22T21:30:35.709Z,7.00
2022-09-22T21:32:41.007Z,9.23
2022-09-22T21:34:46.560Z,7.28
2022-09-22T21:36:54.181Z,7.22
2022-09-22T21:39:01.548Z,6.45
2022-09-22T21:41:09.811Z,8.98
2022-09-22T21:45:20.531Z,9.35
2022-09-22T21:47:25.512Z,6.88
2022-09-22T21:49:30.922Z,9.55
2022-09-22T21:51:42.206Z,9.70
2022-09-22T21:53:55.602Z,7.70
2022-09-22T21:56:03.053Z,6.85
2022-09-22T21:58:08.522Z,10.93
2022-09-22T22:00:15.805Z,5.80
2022-09-22T22:02:21.208Z,5.50
2022-09-22T22:04:26.356Z,6.20
2022-09-22T22:06:34.129Z,8.70
2022-09-22T22:08:44.712Z,4.75
2022-09-22T22:11:06.870Z,10.15
2022-09-22T22:13:12.498Z,6.32
2022-09-22T22:15:17.685Z,5.53
2022-09-22T22:17:23.376Z,7.10
2022-09-22T22:19:29.908Z,6.95
2022-09-22T22:21:35.074Z,5.68
2022-09-22T22:23:42.989Z,6.28
2022-09-22T22:25:48.414Z,6.75
2022-09-22T22:27:57.557Z,4.60
2022-09-22T22:30:03.093Z,8.27
2022-09-22T22:32:10.809Z,4.88
2022-09-22T22:34:16.865Z,5.10
2022-09-22T22:36:24.443Z,5.32
2022-09-22T22:38:29.800Z,5.63
2022-09-22T22:40:35.174Z,9.73
2022-09-22T22:42:40.516Z,8.18
2022-09-22T22:44:48.083Z,6.00
2022-09-22T22:46:53.106Z,6.78
2022-09-22T22:48:58.284Z,6.75
2022-09-22T22:51:08.911Z,6.53
2022-09-22T22:53:15.991Z,7.47
2022-09-22T22:55:21.185Z,6.32
2022-09-22T22:57:26.480Z,6.03
2022-09-22T22:59:32.005Z,7.80
2022-09-22T23:01:40.643Z,5.40
2022-09-22T23:03:49.198Z,6.32
2022-09-22T23:06:02.386Z,11.82
2022-09-22T23:08:08.083Z,6.28
2022-09-22T23:10:13.493Z,9.63
2022-09-22T23:12:19.219Z,8.00
2022-09-22T23:14:24.690Z,6.45
2022-09-22T23:16:32.258Z,9.40
2022-09-22T23:18:43.928Z,6.45
2022-09-22T23:20:50.198Z,9.73
2022-09-22T23:22:55.585Z,5.85
2022-09-22T23:25:01.458Z,7.00
2022-09-22T23:27:06.918Z,7.85
2022-09-22T23:29:11.862Z,10.90
2022-09-22T23:31:21.859Z,7.30
2022-09-22T23:33:28.964Z,8.50
2022-09-22T23:35:36.692Z,7.03
2022-09-22T23:39:46.733Z,4.63
2022-09-22T23:41:52.301Z,8.93
2022-09-22T23:43:57.734Z,14.23
2022-09-22T23:46:04.500Z,6.63
2022-09-22T23:48:09.577Z,6.72
2022-09-22T23:50:14.602Z,9.23
2022-09-22T23:52:22.487Z,5.35
2022-09-22T23:54:28.432Z,8.90
2022-09-22T23:56:33.457Z,4.68
2022-09-22T23:58:39.199Z,4.65
